createdAt,value
2023-01-23T00:01:27.542Z,22.00
2023-01-23T00:03:55.724Z,21.70
2023-01-23T00:06:23.354Z,21.88
2023-01-23T00:08:50.273Z,22.48
2023-01-23T00:11:21.807Z,23.08
2023-01-23T00:13:48.575Z,22.40
2023-01-23T00:16:18.097Z,24.92
2023-01-23T00:18:45.400Z,22.33
2023-01-23T00:21:14.697Z,23.73
2023-01-23T00:23:47.906Z,23.00
2023-01-23T00:26:17.463Z,23.95
2023-01-23T00:28:45.208Z,22.58
2023-01-23T00:31:24.948Z,23.33
2023-01-23T00:33:57.524Z,23.02
2023-01-23T00:36:27.574Z,23.10
2023-01-23T00:38:54.431Z,25.00
2023-01-23T00:41:21.184Z,23.65
2023-01-23T00:43:48.501Z,26.38
2023-01-23T00:46:15.500Z,25.35
2023-01-23T00:48:42.230Z,27.17
2023-01-23T00:51:09.074Z,23.90
2023-01-23T00:53:35.795Z,25.50
2023-01-23T00:56:02.625Z,25.42
2023-01-23T00:58:29.411Z,24.52
2023-01-23T01:00:56.249Z,24.63
2023-01-23T01:03:25.198Z,28.23
2023-01-23T01:05:52.175Z,24.98
2023-01-23T01:08:19.374Z,26.17
2023-01-23T01:10:46.284Z,24.75
2023-01-23T01:13:13.326Z,25.67
2023-01-23T01:15:40.070Z,24.17
2023-01-23T01:18:06.825Z,27.02
2023-01-23T01:20:33.649Z,25.13
2023-01-23T01:23:00.661Z,25.52
2023-01-23T01:25:27.643Z,24.85
2023-01-23T01:27:56.060Z,22.92
2023-01-23T01:30:23.290Z,24.63
2023-01-23T01:32:50.083Z,24.50
2023-01-23T01:35:16.908Z,24.55
2023-01-23T01:37:43.695Z,25.88
2023-01-23T01:40:15.142Z,23.15
2023-01-23T01:42:49.775Z,27.10
2023-01-23T01:45:54.117Z,24.42
2023-01-23T01:48:23.801Z,24.38
2023-01-23T01:50:51.456Z,26.92
2023-01-23T01:53:18.386Z,24.95
2023-01-23T01:55:45.138Z,26.27
2023-01-23T01:58:12.459Z,26.33
2023-01-23T02:00:39.271Z,27.42
2023-01-23T02:03:06.777Z,25.05
2023-01-23T02:05:41.575Z,24.80
2023-01-23T02:08:23.286Z,27.58
2023-01-23T02:10:50.453Z,26.67
2023-01-23T02:13:39.979Z,25.73
2023-01-23T02:16:10.357Z,26.63
2023-01-23T02:18:42.684Z,27.52
2023-01-23T02:23:47.182Z,24.58
2023-01-23T02:26:17.838Z,26.50
2023-01-23T02:28:47.180Z,24.90
2023-01-23T02:31:14.732Z,24.80
2023-01-23T02:33:45.494Z,24.50
2023-01-23T02:36:12.285Z,23.50
2023-01-23T02:39:00.271Z,24.45
2023-01-23T02:41:36.138Z,25.25
2023-01-23T02:44:17.820Z,24.55
2023-01-23T02:46:45.178Z,24.17
2023-01-23T02:49:12.099Z,25.13
2023-01-23T02:51:38.872Z,25.33
2023-01-23T02:54:05.900Z,23.05
2023-01-23T02:56:33.974Z,25.13
2023-01-23T02:59:19.270Z,21.92
2023-01-23T03:01:46.196Z,24.92
2023-01-23T03:04:13.023Z,23.92
2023-01-23T03:06:40.041Z,24.33
2023-01-23T03:09:12.631Z,23.73
2023-01-23T03:11:40.872Z,23.95
2023-01-23T03:14:10.336Z,23.45
2023-01-23T03:16:38.436Z,22.63
2023-01-23T03:21:34.202Z,23.45
2023-01-23T03:24:00.981Z,22.27
2023-01-23T03:26:27.841Z,22.90
2023-01-23T03:29:13.109Z,25.13
2023-01-23T03:31:40.445Z,22.10
2023-01-23T03:34:07.451Z,23.25
2023-01-23T03:36:37.380Z,22.58
2023-01-23T03:39:24.375Z,25.00
2023-01-23T03:41:51.659Z,22.60
2023-01-23T03:44:19.150Z,22.15
2023-01-23T03:46:50.502Z,25.80
2023-01-23T03:49:17.895Z,24.92
2023-01-23T03:51:44.905Z,22.25
2023-01-23T03:54:12.025Z,22.45
2023-01-23T03:56:38.824Z,23.35
2023-01-23T03:59:05.606Z,24.92
2023-01-23T04:01:32.372Z,22.30
2023-01-23T04:03:59.152Z,21.13
2023-01-23T04:06:25.961Z,22.70
2023-01-23T04:08:52.787Z,22.63
2023-01-23T04:11:20.059Z,22.92
2023-01-23T04:13:46.856Z,23.52
2023-01-23T04:16:13.919Z,23.88
2023-01-23T04:18:40.724Z,23.17
2023-01-23T04:21:07.572Z,24.42
2023-01-23T04:23:34.342Z,22.77
2023-01-23T04:26:01.131Z,26.35
2023-01-23T04:28:27.914Z,24.70
2023-01-23T04:30:54.733Z,24.67
2023-01-23T04:33:22.218Z,26.23
2023-01-23T04:35:55.790Z,25.75
2023-01-23T04:38:24.547Z,23.02
2023-01-23T04:40:51.624Z,22.40
2023-01-23T04:43:18.462Z,25.65
2023-01-23T04:45:45.473Z,22.65
2023-01-23T04:48:13.309Z,23.95
2023-01-23T04:50:40.109Z,23.67
2023-01-23T04:53:06.967Z,24.85
2023-01-23T04:55:34.047Z,23.80
2023-01-23T04:58:01.354Z,25.63
2023-01-23T05:00:29.445Z,25.25
2023-01-23T05:02:56.986Z,25.92
2023-01-23T05:05:24.186Z,21.80
2023-01-23T05:07:51.708Z,25.02
2023-01-23T05:10:19.369Z,24.75
2023-01-23T05:12:46.429Z,26.60
2023-01-23T05:15:13.174Z,23.75
2023-01-23T05:17:40.046Z,25.85
2023-01-23T05:20:07.649Z,24.63
2023-01-23T05:22:34.537Z,25.88
2023-01-23T05:25:01.380Z,22.58
2023-01-23T05:27:28.524Z,25.95
2023-01-23T05:29:55.294Z,24.48
2023-01-23T05:32:22.164Z,25.80
2023-01-23T05:34:49.021Z,24.33
2023-01-23T05:37:15.903Z,24.92
2023-01-23T05:39:42.773Z,27.05
2023-01-23T05:42:09.684Z,25.20
2023-01-23T05:44:36.423Z,22.00
2023-01-23T05:47:03.243Z,22.35
2023-01-23T05:49:30.037Z,21.88
2023-01-23T05:51:56.804Z,22.42
2023-01-23T05:54:23.537Z,23.02
2023-01-23T05:56:50.383Z,22.38
2023-01-23T05:59:17.149Z,23.60
2023-01-23T06:01:43.876Z,22.17
2023-01-23T06:04:10.675Z,21.58
2023-01-23T06:06:37.444Z,20.45
2023-01-23T06:09:04.216Z,21.60
2023-01-23T06:11:30.982Z,21.40
2023-01-23T06:13:57.724Z,21.23
2023-01-23T06:16:24.549Z,24.48
2023-01-23T06:18:51.317Z,22.25
2023-01-23T06:21:18.450Z,21.50
2023-01-23T06:23:46.393Z,22.23
2023-01-23T06:26:13.583Z,20.85
2023-01-23T06:28:40.449Z,21.77
2023-01-23T06:31:09.411Z,20.83
2023-01-23T06:33:38.993Z,20.45
2023-01-23T06:36:07.225Z,22.33
2023-01-23T06:38:34.325Z,22.05
2023-01-23T06:41:01.192Z,21.60
2023-01-23T06:43:28.085Z,21.05
2023-01-23T06:45:54.903Z,21.33
2023-01-23T06:48:21.965Z,18.92
2023-01-23T06:50:48.913Z,21.48
2023-01-23T06:53:16.952Z,22.08
2023-01-23T06:55:43.790Z,20.77
2023-01-23T06:58:10.686Z,21.10
2023-01-23T07:00:37.627Z,20.45
2023-01-23T07:03:04.470Z,19.75
2023-01-23T07:05:32.680Z,19.63
2023-01-23T07:07:59.435Z,19.45
2023-01-23T07:10:26.434Z,18.95
2023-01-23T07:12:53.254Z,19.55
2023-01-23T07:15:20.130Z,20.35
2023-01-23T07:17:47.075Z,20.83
2023-01-23T07:20:14.298Z,19.52
2023-01-23T07:22:41.783Z,19.90
2023-01-23T07:25:09.092Z,17.05
2023-01-23T07:27:35.931Z,18.52
2023-01-23T07:30:02.735Z,18.58
2023-01-23T07:32:29.517Z,18.33
2023-01-23T07:34:56.252Z,18.27
2023-01-23T07:37:23.098Z,16.15
2023-01-23T07:39:50.711Z,16.58
2023-01-23T07:42:17.521Z,17.63
2023-01-23T07:44:44.348Z,17.27
2023-01-23T07:47:11.096Z,16.33
2023-01-23T07:49:37.821Z,16.77
2023-01-23T07:52:05.291Z,16.00
2023-01-23T07:54:32.101Z,16.85
2023-01-23T07:56:58.938Z,16.55
2023-01-23T07:59:25.714Z,16.75
2023-01-23T08:01:52.805Z,15.45
2023-01-23T08:04:20.648Z,15.05
2023-01-23T08:06:47.459Z,15.15
2023-01-23T08:09:14.248Z,17.13
2023-01-23T08:11:41.074Z,16.70
2023-01-23T08:14:07.877Z,15.82
2023-01-23T08:16:34.633Z,13.60
2023-01-23T08:19:01.372Z,15.40
2023-01-23T08:21:28.137Z,16.08
2023-01-23T08:23:54.861Z,16.25
2023-01-23T08:26:21.581Z,15.05
2023-01-23T08:28:48.300Z,14.45
2023-01-23T08:31:15.258Z,15.05
2023-01-23T08:33:42.194Z,15.82
2023-01-23T08:36:11.522Z,14.48
2023-01-23T08:38:38.676Z,16.55
2023-01-23T08:41:06.222Z,15.30
2023-01-23T08:43:33.469Z,14.80
2023-01-23T08:46:00.495Z,15.48
2023-01-23T08:48:28.489Z,16.48
2023-01-23T08:51:03.792Z,15.20
2023-01-23T08:53:31.402Z,15.90
2023-01-23T08:56:05.840Z,15.25
2023-01-23T08:58:32.709Z,16.83
2023-01-23T09:00:59.786Z,15.00
2023-01-23T09:03:27.374Z,17.17
2023-01-23T09:05:54.080Z,15.48
2023-01-23T09:08:20.876Z,15.98
2023-01-23T09:10:47.599Z,14.85
2023-01-23T09:13:14.502Z,16.30
2023-01-23T09:15:41.333Z,15.85
2023-01-23T09:18:08.142Z,17.08
2023-01-23T09:23:16.232Z,15.25
2023-01-23T09:25:42.948Z,16.45
2023-01-23T09:28:09.967Z,16.30
2023-01-23T09:30:37.149Z,16.58
2023-01-23T09:33:07.332Z,16.10
2023-01-23T09:35:34.464Z,16.50
2023-01-23T09:38:06.747Z,17.52
2023-01-23T09:40:51.247Z,16.15
2023-01-23T09:43:34.101Z,19.17
2023-01-23T09:46:42.625Z,18.63
2023-01-23T09:49:28.635Z,16.58
2023-01-23T09:51:58.347Z,15.23
2023-01-23T09:54:49.481Z,17.40
2023-01-23T09:57:26.313Z,16.15
2023-01-23T10:00:26.005Z,16.38
2023-01-23T10:02:56.841Z,15.50
2023-01-23T10:05:39.742Z,16.40
2023-01-23T10:08:31.417Z,16.23
2023-01-23T10:11:02.956Z,11.47
2023-01-23T10:13:51.040Z,16.83
2023-01-23T10:16:49.381Z,15.20
2023-01-23T10:19:43.223Z,14.70
2023-01-23T10:22:29.355Z,16.77
2023-01-23T10:24:58.303Z,15.95
2023-01-23T10:27:41.611Z,17.05
2023-01-23T10:30:31.123Z,14.18
2023-01-23T10:33:01.653Z,15.00
2023-01-23T10:35:43.394Z,16.08
2023-01-23T10:38:28.193Z,14.55
2023-01-23T10:41:13.678Z,16.48
2023-01-23T10:43:45.271Z,15.13
2023-01-23T10:46:16.842Z,15.40
2023-01-23T10:48:46.719Z,11.85
2023-01-23T10:51:43.688Z,14.98
2023-01-23T10:54:31.398Z,16.70
2023-01-23T10:57:08.494Z,16.33
2023-01-23T10:59:41.397Z,16.02
2023-01-23T11:02:14.420Z,14.90
2023-01-23T11:04:43.504Z,15.15
2023-01-23T11:07:37.251Z,15.18
2023-01-23T11:10:10.095Z,14.77
2023-01-23T11:12:54.299Z,15.45
2023-01-23T11:15:33.808Z,14.98
2023-01-23T11:18:01.601Z,15.90
2023-01-23T11:20:40.100Z,16.13
2023-01-23T11:23:12.716Z,15.18
2023-01-23T11:25:40.572Z,18.17
2023-01-23T11:28:35.474Z,16.48
2023-01-23T11:31:14.020Z,16.60
2023-01-23T11:34:09.053Z,14.35
2023-01-23T11:36:48.693Z,15.38
2023-01-23T11:39:40.273Z,15.13
2023-01-23T11:42:11.404Z,15.73
2023-01-23T11:44:45.903Z,14.07
2023-01-23T11:47:45.013Z,15.07
2023-01-23T11:50:54.067Z,15.13
2023-01-23T11:53:42.897Z,15.02
2023-01-23T11:56:31.839Z,15.27
2023-01-23T11:59:14.651Z,16.25
2023-01-23T12:02:25.650Z,14.65
2023-01-23T12:05:01.247Z,13.23
2023-01-23T12:07:28.435Z,14.73
2023-01-23T12:10:00.059Z,14.88
2023-01-23T12:12:52.269Z,14.30
2023-01-23T12:15:42.878Z,15.68
2023-01-23T12:18:28.141Z,15.88
2023-01-23T12:21:01.275Z,15.63
2023-01-23T12:23:55.563Z,14.35
2023-01-23T12:26:25.693Z,15.82
2023-01-23T12:29:18.586Z,16.00
2023-01-23T12:32:00.734Z,18.23
2023-01-23T12:37:29.187Z,14.40
2023-01-23T12:40:00.332Z,15.90
2023-01-23T12:42:30.914Z,16.92
2023-01-23T12:45:07.484Z,15.85
2023-01-23T12:47:43.160Z,17.17
2023-01-23T12:50:23.751Z,15.80
2023-01-23T12:53:06.193Z,15.43
2023-01-23T12:55:40.533Z,14.60
2023-01-23T12:58:12.617Z,16.83
2023-01-23T13:01:02.085Z,15.40
2023-01-23T13:03:59.264Z,16.27
2023-01-23T13:06:45.697Z,18.30
2023-01-23T13:09:50.118Z,14.52
2023-01-23T13:12:28.395Z,14.55
2023-01-23T13:15:22.722Z,15.15
2023-01-23T13:17:57.606Z,14.90
2023-01-23T13:20:48.315Z,14.57
2023-01-23T13:23:25.079Z,16.38
2023-01-23T13:26:32.126Z,16.13
2023-01-23T13:29:02.538Z,14.20
2023-01-23T13:31:50.444Z,15.00
2023-01-23T13:34:17.517Z,13.38
2023-01-23T13:36:46.184Z,15.27
2023-01-23T13:39:26.287Z,15.18
2023-01-23T13:42:14.830Z,14.45
2023-01-23T13:45:19.774Z,13.95
2023-01-23T14:21:41.086Z,15.52
2023-01-23T14:24:24.907Z,17.00
2023-01-23T14:27:02.493Z,16.17
2023-01-23T14:29:31.527Z,15.70
2023-01-23T14:31:58.301Z,16.00
2023-01-23T14:34:26.512Z,15.38
2023-01-23T14:37:05.610Z,14.48
2023-01-23T14:39:35.428Z,13.45
2023-01-23T14:42:04.493Z,14.45
2023-01-23T14:44:43.604Z,15.70
2023-01-23T14:47:20.472Z,16.33
2023-01-23T14:49:48.245Z,15.43
2023-01-23T14:52:29.690Z,14.60
2023-01-23T14:55:01.181Z,17.00
2023-01-23T14:57:35.253Z,16.52
2023-01-23T15:00:03.521Z,15.73
2023-01-23T15:02:33.218Z,14.73
2023-01-23T15:05:19.854Z,14.27
2023-01-23T15:08:03.101Z,14.00
2023-01-23T15:10:32.137Z,16.30
2023-01-23T15:13:14.383Z,14.55
2023-01-23T15:15:49.132Z,17.60
2023-01-23T15:18:22.695Z,14.63
2023-01-23T15:21:00.263Z,16.38
2023-01-23T15:23:33.850Z,15.25
2023-01-23T15:26:14.611Z,16.35
2023-01-23T15:28:49.983Z,16.98
2023-01-23T15:31:39.159Z,16.45
2023-01-23T15:34:15.416Z,17.40
2023-01-23T15:37:06.309Z,16.10
2023-01-23T15:39:50.069Z,16.17
2023-01-23T15:42:16.791Z,15.32
2023-01-23T15:44:44.166Z,15.65
2023-01-23T15:47:11.199Z,15.55
2023-01-23T15:49:39.937Z,16.20
2023-01-23T15:52:22.677Z,16.08
2023-01-23T15:54:53.241Z,15.75
2023-01-23T15:57:20.348Z,15.75
2023-01-23T15:59:47.115Z,14.32
2023-01-23T16:02:30.111Z,16.10
2023-01-23T16:04:58.724Z,14.93
2023-01-23T16:07:34.564Z,15.05
2023-01-23T16:10:04.696Z,15.45
2023-01-23T16:12:32.741Z,15.65
2023-01-23T16:14:59.599Z,16.75
2023-01-23T16:17:26.545Z,16.25
2023-01-23T16:19:54.409Z,18.70
2023-01-23T16:22:26.404Z,17.80
2023-01-23T16:24:53.424Z,16.58
2023-01-23T16:27:27.377Z,16.27
2023-01-23T16:29:55.827Z,14.90
2023-01-23T16:32:23.184Z,17.70
2023-01-23T16:34:50.110Z,17.45
2023-01-23T16:37:18.448Z,16.20
2023-01-23T16:39:46.665Z,15.93
2023-01-23T16:42:23.058Z,17.20
2023-01-23T16:44:50.739Z,18.42
2023-01-23T16:47:17.541Z,17.30
2023-01-23T16:49:52.257Z,18.38
2023-01-23T16:52:21.449Z,16.38
2023-01-23T16:54:48.242Z,18.80
2023-01-23T16:57:20.195Z,17.25
2023-01-23T16:59:48.039Z,18.52
2023-01-23T17:02:28.908Z,17.88
2023-01-23T17:04:55.867Z,18.23
2023-01-23T17:07:22.622Z,23.17
2023-01-23T17:09:49.431Z,23.55
2023-01-23T17:12:30.011Z,18.25
2023-01-23T17:14:57.172Z,17.92
2023-01-23T17:17:33.250Z,18.85
2023-01-23T17:20:01.731Z,19.92
2023-01-23T17:22:33.821Z,20.67
2023-01-23T17:25:00.555Z,18.50
2023-01-23T17:27:27.287Z,18.92
2023-01-23T17:29:54.107Z,19.30
2023-01-23T17:32:35.429Z,19.58
2023-01-23T17:35:04.673Z,18.85
2023-01-23T17:37:31.757Z,18.58
2023-01-23T17:39:58.517Z,22.83
2023-01-23T17:42:25.412Z,17.88
2023-01-23T17:44:52.192Z,19.98
2023-01-23T17:47:19.439Z,21.17
2023-01-23T17:49:54.783Z,19.45
2023-01-23T17:52:21.892Z,17.80
2023-01-23T17:54:49.690Z,18.48
2023-01-23T17:57:16.527Z,20.30
2023-01-23T17:59:43.356Z,20.25
2023-01-23T18:02:26.653Z,20.52
2023-01-23T18:04:53.706Z,20.42
2023-01-23T18:07:20.498Z,19.48
2023-01-23T18:09:47.269Z,20.33
2023-01-23T18:12:21.391Z,19.55
2023-01-23T18:14:55.847Z,20.33
2023-01-23T18:17:51.493Z,20.33
2023-01-23T18:20:20.704Z,20.75
2023-01-23T18:22:48.015Z,19.10
2023-01-23T18:25:19.367Z,20.23
2023-01-23T18:27:50.247Z,18.38
2023-01-23T18:30:55.672Z,20.75
2023-01-23T18:33:50.612Z,18.20
2023-01-23T18:36:20.403Z,19.35
2023-01-23T18:39:05.218Z,19.48
2023-01-23T18:41:32.379Z,19.45
2023-01-23T18:44:11.159Z,21.98
2023-01-23T18:46:38.080Z,19.10
2023-01-23T18:49:05.191Z,20.08
2023-01-23T18:51:54.259Z,20.38
2023-01-23T18:54:32.511Z,20.13
2023-01-23T18:57:26.867Z,20.17
2023-01-23T19:00:12.842Z,20.15
2023-01-23T19:02:52.817Z,22.80
2023-01-23T19:05:39.984Z,23.45
2023-01-23T19:08:07.088Z,21.95
2023-01-23T19:10:48.991Z,21.70
2023-01-23T19:13:20.593Z,20.77
2023-01-23T19:15:56.126Z,18.77
2023-01-23T19:18:39.792Z,23.23
2023-01-23T19:21:26.675Z,21.88
2023-01-23T19:23:58.401Z,21.05
2023-01-23T19:26:27.808Z,21.75
2023-01-23T19:28:57.345Z,23.40
2023-01-23T19:31:30.333Z,25.55
2023-01-23T19:33:58.793Z,23.70
2023-01-23T19:36:26.850Z,22.77
2023-01-23T19:39:00.543Z,22.75
2023-01-23T19:41:44.586Z,22.45
2023-01-23T19:44:13.968Z,23.13
2023-01-23T19:46:41.164Z,24.35
2023-01-23T19:49:07.960Z,23.73
2023-01-23T19:51:35.209Z,23.40
2023-01-23T19:54:02.273Z,22.00
2023-01-23T19:56:29.026Z,24.95
2023-01-23T19:58:56.273Z,24.85
2023-01-23T20:01:27.356Z,23.73
2023-01-23T20:03:54.185Z,22.80
2023-01-23T20:06:21.072Z,25.40
2023-01-23T20:08:48.126Z,23.63
2023-01-23T20:11:14.978Z,24.85
2023-01-23T20:13:42.182Z,23.45
2023-01-23T20:16:20.439Z,23.15
2023-01-23T20:18:49.190Z,23.90
2023-01-23T20:21:18.122Z,23.13
2023-01-23T20:23:45.982Z,23.70
2023-01-23T20:26:13.895Z,22.70
2023-01-23T20:28:41.035Z,22.65
2023-01-23T20:31:13.121Z,22.02
2023-01-23T20:36:08.163Z,20.60
2023-01-23T20:38:34.908Z,22.33
2023-01-23T20:41:05.684Z,21.60
2023-01-23T20:43:32.542Z,22.33
2023-01-23T20:45:59.336Z,21.33
2023-01-23T20:48:26.492Z,21.80
2023-01-23T20:50:55.396Z,23.67
2023-01-23T20:53:34.057Z,21.95
2023-01-23T20:56:02.826Z,22.80
2023-01-23T20:58:49.330Z,23.33
2023-01-23T21:01:17.758Z,22.60
2023-01-23T21:03:46.677Z,22.35
2023-01-23T21:06:15.465Z,23.40
2023-01-23T21:08:42.656Z,23.95
2023-01-23T21:11:13.416Z,25.08
2023-01-23T21:13:40.502Z,22.70
2023-01-23T21:16:10.885Z,20.73
2023-01-23T21:18:41.292Z,21.30
2023-01-23T21:21:09.115Z,21.70
2023-01-23T21:23:36.691Z,21.30
2023-01-23T21:26:04.749Z,23.88
2023-01-23T21:28:35.523Z,22.63
2023-01-23T21:31:20.590Z,21.88
2023-01-23T21:33:48.452Z,21.70
2023-01-23T21:36:17.675Z,23.65
2023-01-23T21:38:45.130Z,24.27
2023-01-23T21:41:12.528Z,24.67
2023-01-23T21:43:39.626Z,23.85
2023-01-23T21:46:06.932Z,22.98
2023-01-23T21:48:34.391Z,24.30
2023-01-23T21:51:15.695Z,24.50
2023-01-23T21:53:45.164Z,23.50
2023-01-23T21:56:14.128Z,22.58
2023-01-23T21:58:42.390Z,25.30
2023-01-23T22:01:32.714Z,24.35
2023-01-23T22:04:10.503Z,24.48
2023-01-23T22:06:40.086Z,22.42
2023-01-23T22:09:08.279Z,24.52
2023-01-23T22:11:35.864Z,23.42
2023-01-23T22:14:04.444Z,24.50
2023-01-23T22:16:47.507Z,25.45
2023-01-23T22:19:17.261Z,25.65
2023-01-23T22:21:46.291Z,25.60
2023-01-23T22:24:13.374Z,24.65
2023-01-23T22:26:40.238Z,23.77
2023-01-23T22:29:07.178Z,23.48
2023-01-23T22:31:34.012Z,24.35
2023-01-23T22:34:00.859Z,24.50
2023-01-23T22:36:27.634Z,24.80
2023-01-23T22:38:55.180Z,23.27
2023-01-23T22:41:23.009Z,26.70
2023-01-23T22:43:54.536Z,24.42
2023-01-23T22:46:22.050Z,24.33
2023-01-23T22:48:48.935Z,23.42
2023-01-23T22:51:16.694Z,22.98
2023-01-23T22:53:43.545Z,23.90
2023-01-23T22:56:11.031Z,23.30
2023-01-23T22:58:37.995Z,22.48
2023-01-23T23:01:05.717Z,24.55
2023-01-23T23:03:34.878Z,23.92
2023-01-23T23:06:04.936Z,22.30
2023-01-23T23:08:32.823Z,26.65
2023-01-23T23:11:02.332Z,22.25
2023-01-23T23:13:30.787Z,23.85
2023-01-23T23:15:57.849Z,22.48
2023-01-23T23:18:24.651Z,24.52
2023-01-23T23:20:51.467Z,23.05
2023-01-23T23:23:19.553Z,20.77
2023-01-23T23:25:46.380Z,23.35
2023-01-23T23:28:13.150Z,23.10
2023-01-23T23:30:39.927Z,21.70
2023-01-23T23:33:06.700Z,22.38
2023-01-23T23:35:33.485Z,21.13
2023-01-23T23:38:00.261Z,22.42
2023-01-23T23:40:26.998Z,22.80
2023-01-23T23:42:53.748Z,21.50
2023-01-23T23:45:20.799Z,22.42
2023-01-23T23:47:47.813Z,22.17
2023-01-23T23:50:14.671Z,23.45
2023-01-23T23:52:41.469Z,22.92
2023-01-23T23:55:09.113Z,23.52
2023-01-23T23:57:35.850Z,21.75
